sensor_id;sensor_type;location;lat;lon;timestamp;P1;durP1;ratioP1;P2;durP2;ratioP2
12433;SDS011;6281;49.038;8.372;2022-08-03T00:00:17;3.20;;;2.70;;
12433;SDS011;6281;49.038;8.372;2022-08-03T00:02:45;3.17;;;2.87;;
12433;SDS011;6281;49.038;8.372;2022-08-03T00:05:11;3.35;;;3.00;;
12433;SDS011;6281;49.038;8.372;2022-08-03T00:07:38;3.13;;;2.80;;
12433;SDS011;6281;49.038;8.372;2022-08-03T00:10:05;3.23;;;2.93;;
12433;SDS011;6281;49.038;8.372;2022-08-03T00:12:33;3.00;;;2.80;;
12433;SDS011;6281;49.038;8.372;2022-08-03T00:15:00;4.93;;;3.47;;
12433;SDS011;6281;49.038;8.372;2022-08-03T00:17:29;3.57;;;3.27;;
12433;SDS011;6281;49.038;8.372;2022-08-03T00:19:55;2.93;;;2.73;;
12433;SDS011;6281;49.038;8.372;2022-08-03T00:22:22;6.13;;;3.10;;
12433;SDS011;6281;49.038;8.372;2022-08-03T00:24:49;5.93;;;3.20;;
12433;SDS011;6281;49.038;8.372;2022-08-03T00:27:16;3.57;;;3.10;;
12433;SDS011;6281;49.038;8.372;2022-08-03T00:29:43;4.33;;;3.50;;
12433;SDS011;6281;49.038;8.372;2022-08-03T00:32:09;3.27;;;2.80;;
12433;SDS011;6281;49.038;8.372;2022-08-03T00:34:37;4.50;;;3.13;;
12433;SDS011;6281;49.038;8.372;2022-08-03T00:37:04;3.33;;;3.03;;
12433;SDS011;6281;49.038;8.372;2022-08-03T00:39:31;3.97;;;2.83;;
12433;SDS011;6281;49.038;8.372;2022-08-03T00:42:00;3.33;;;3.07;;
12433;SDS011;6281;49.038;8.372;2022-08-03T00:44:28;4.23;;;3.23;;
12433;SDS011;6281;49.038;8.372;2022-08-03T00:46:54;19.50;;;5.10;;
12433;SDS011;6281;49.038;8.372;2022-08-03T00:49:22;15.80;;;5.17;;
12433;SDS011;6281;49.038;8.372;2022-08-03T00:51:50;12.93;;;4.67;;
12433;SDS011;6281;49.038;8.372;2022-08-03T00:54:17;29.57;;;6.17;;
12433;SDS011;6281;49.038;8.372;2022-08-03T00:56:45;29.27;;;5.30;;
12433;SDS011;6281;49.038;8.372;2022-08-03T00:59:13;8.10;;;3.00;;
12433;SDS011;6281;49.038;8.372;2022-08-03T01:01:41;19.33;;;4.70;;
12433;SDS011;6281;49.038;8.372;2022-08-03T01:04:08;15.13;;;3.97;;
12433;SDS011;6281;49.038;8.372;2022-08-03T01:06:35;6.33;;;3.60;;
12433;SDS011;6281;49.038;8.372;2022-08-03T01:09:12;6.60;;;3.43;;
12433;SDS011;6281;49.038;8.372;2022-08-03T01:11:48;4.20;;;3.73;;
12433;SDS011;6281;49.038;8.372;2022-08-03T01:14:23;6.23;;;3.30;;
12433;SDS011;6281;49.038;8.372;2022-08-03T01:16:59;5.93;;;3.33;;
12433;SDS011;6281;49.038;8.372;2022-08-03T01:19:40;3.70;;;2.83;;
12433;SDS011;6281;49.038;8.372;2022-08-03T01:22:29;4.23;;;3.20;;
12433;SDS011;6281;49.038;8.372;2022-08-03T01:25:13;3.70;;;3.10;;
12433;SDS011;6281;49.038;8.372;2022-08-03T01:27:52;3.67;;;2.90;;
12433;SDS011;6281;49.038;8.372;2022-08-03T01:30:29;4.47;;;3.60;;
12433;SDS011;6281;49.038;8.372;2022-08-03T01:32:59;4.67;;;3.30;;
12433;SDS011;6281;49.038;8.372;2022-08-03T01:35:31;3.50;;;3.20;;
12433;SDS011;6281;49.038;8.372;2022-08-03T01:38:01;3.43;;;3.10;;
12433;SDS011;6281;49.038;8.372;2022-08-03T01:40:30;3.67;;;3.33;;
12433;SDS011;6281;49.038;8.372;2022-08-03T01:42:59;3.93;;;3.50;;
12433;SDS011;6281;49.038;8.372;2022-08-03T01:45:30;7.20;;;3.30;;
12433;SDS011;6281;49.038;8.372;2022-08-03T01:47:57;4.63;;;3.40;;
12433;SDS011;6281;49.038;8.372;2022-08-03T01:50:27;3.90;;;3.60;;
12433;SDS011;6281;49.038;8.372;2022-08-03T01:52:55;4.03;;;3.63;;
12433;SDS011;6281;49.038;8.372;2022-08-03T01:55:24;3.70;;;3.40;;
12433;SDS011;6281;49.038;8.372;2022-08-03T01:57:52;6.03;;;3.90;;
12433;SDS011;6281;49.038;8.372;2022-08-03T02:00:21;4.40;;;4.00;;
12433;SDS011;6281;49.038;8.372;2022-08-03T02:02:52;8.30;;;4.07;;
12433;SDS011;6281;49.038;8.372;2022-08-03T02:05:20;4.63;;;4.07;;
12433;SDS011;6281;49.038;8.372;2022-08-03T02:07:47;6.00;;;3.93;;
12433;SDS011;6281;49.038;8.372;2022-08-03T02:10:17;4.67;;;3.57;;
12433;SDS011;6281;49.038;8.372;2022-08-03T02:12:46;4.00;;;3.70;;
12433;SDS011;6281;49.038;8.372;2022-08-03T02:15:15;8.70;;;4.10;;
12433;SDS011;6281;49.038;8.372;2022-08-03T02:17:43;4.57;;;4.00;;
12433;SDS011;6281;49.038;8.372;2022-08-03T02:20:13;3.77;;;3.47;;
12433;SDS011;6281;49.038;8.372;2022-08-03T02:22:41;4.03;;;3.20;;
12433;SDS011;6281;49.038;8.372;2022-08-03T02:25:10;5.43;;;3.47;;
12433;SDS011;6281;49.038;8.372;2022-08-03T02:27:39;4.97;;;3.57;;
12433;SDS011;6281;49.038;8.372;2022-08-03T02:30:11;3.83;;;3.50;;
12433;SDS011;6281;49.038;8.372;2022-08-03T02:32:40;4.67;;;3.93;;
12433;SDS011;6281;49.038;8.372;2022-08-03T02:35:14;6.53;;;4.37;;
12433;SDS011;6281;49.038;8.372;2022-08-03T02:37:43;4.53;;;3.90;;
12433;SDS011;6281;49.038;8.372;2022-08-03T02:40:13;5.43;;;3.60;;
12433;SDS011;6281;49.038;8.372;2022-08-03T02:42:42;5.97;;;4.10;;
12433;SDS011;6281;49.038;8.372;2022-08-03T02:45:11;4.30;;;3.67;;
12433;SDS011;6281;49.038;8.372;2022-08-03T02:47:40;3.97;;;3.57;;
12433;SDS011;6281;49.038;8.372;2022-08-03T02:50:09;4.57;;;3.50;;
12433;SDS011;6281;49.038;8.372;2022-08-03T02:52:39;3.63;;;3.33;;
12433;SDS011;6281;49.038;8.372;2022-08-03T02:55:09;5.40;;;3.40;;
12433;SDS011;6281;49.038;8.372;2022-08-03T02:57:37;3.83;;;3.50;;
12433;SDS011;6281;49.038;8.372;2022-08-03T03:00:06;5.40;;;3.20;;
12433;SDS011;6281;49.038;8.372;2022-08-03T03:02:34;3.83;;;3.35;;
12433;SDS011;6281;49.038;8.372;2022-08-03T03:05:03;5.37;;;3.60;;
12433;SDS011;6281;49.038;8.372;2022-08-03T03:07:31;5.50;;;3.40;;
12433;SDS011;6281;49.038;8.372;2022-08-03T03:10:00;4.10;;;3.20;;
12433;SDS011;6281;49.038;8.372;2022-08-03T03:12:28;3.57;;;3.23;;
12433;SDS011;6281;49.038;8.372;2022-08-03T03:14:56;3.60;;;3.30;;
12433;SDS011;6281;49.038;8.372;2022-08-03T03:17:23;3.57;;;3.27;;
12433;SDS011;6281;49.038;8.372;2022-08-03T03:19:51;3.53;;;3.07;;
12433;SDS011;6281;49.038;8.372;2022-08-03T03:22:20;4.40;;;3.53;;
12433;SDS011;6281;49.038;8.372;2022-08-03T03:24:48;4.23;;;3.20;;
12433;SDS011;6281;49.038;8.372;2022-08-03T03:27:18;3.80;;;3.30;;
12433;SDS011;6281;49.038;8.372;2022-08-03T03:29:46;3.40;;;3.20;;
12433;SDS011;6281;49.038;8.372;2022-08-03T03:32:14;4.90;;;3.50;;
12433;SDS011;6281;49.038;8.372;2022-08-03T03:34:41;6.03;;;3.97;;
12433;SDS011;6281;49.038;8.372;2022-08-03T03:37:08;4.57;;;3.60;;
12433;SDS011;6281;49.038;8.372;2022-08-03T03:39:35;4.13;;;3.60;;
12433;SDS011;6281;49.038;8.372;2022-08-03T03:42:03;5.00;;;3.60;;
12433;SDS011;6281;49.038;8.372;2022-08-03T03:44:31;4.03;;;3.60;;
12433;SDS011;6281;49.038;8.372;2022-08-03T03:46:58;4.60;;;3.40;;
12433;SDS011;6281;49.038;8.372;2022-08-03T03:49:26;5.07;;;3.53;;
12433;SDS011;6281;49.038;8.372;2022-08-03T03:51:53;3.53;;;3.23;;
12433;SDS011;6281;49.038;8.372;2022-08-03T03:54:20;3.67;;;3.17;;
12433;SDS011;6281;49.038;8.372;2022-08-03T03:56:47;3.70;;;3.40;;
12433;SDS011;6281;49.038;8.372;2022-08-03T03:59:14;3.83;;;3.53;;
12433;SDS011;6281;49.038;8.372;2022-08-03T04:01:43;3.47;;;3.03;;
12433;SDS011;6281;49.038;8.372;2022-08-03T04:04:10;4.63;;;3.27;;
12433;SDS011;6281;49.038;8.372;2022-08-03T04:06:54;5.93;;;3.97;;
12433;SDS011;6281;49.038;8.372;2022-08-03T04:09:39;4.30;;;3.60;;
12433;SDS011;6281;49.038;8.372;2022-08-03T04:12:27;3.77;;;3.17;;
12433;SDS011;6281;49.038;8.372;2022-08-03T04:14:55;5.10;;;3.60;;
12433;SDS011;6281;49.038;8.372;2022-08-03T04:17:25;5.23;;;3.70;;
12433;SDS011;6281;49.038;8.372;2022-08-03T04:19:54;3.73;;;3.37;;
12433;SDS011;6281;49.038;8.372;2022-08-03T04:22:24;4.70;;;3.77;;
12433;SDS011;6281;49.038;8.372;2022-08-03T04:24:54;6.33;;;3.90;;
12433;SDS011;6281;49.038;8.372;2022-08-03T04:27:28;7.67;;;3.67;;
12433;SDS011;6281;49.038;8.372;2022-08-03T04:29:59;8.97;;;3.80;;
12433;SDS011;6281;49.038;8.372;2022-08-03T04:32:30;20.10;;;5.50;;
12433;SDS011;6281;49.038;8.372;2022-08-03T04:34:58;22.37;;;4.93;;
12433;SDS011;6281;49.038;8.372;2022-08-03T04:37:27;17.23;;;4.30;;
12433;SDS011;6281;49.038;8.372;2022-08-03T04:40:01;16.57;;;4.47;;
12433;SDS011;6281;49.038;8.372;2022-08-03T04:42:31;7.73;;;3.80;;
12433;SDS011;6281;49.038;8.372;2022-08-03T04:44:59;10.50;;;3.43;;
12433;SDS011;6281;49.038;8.372;2022-08-03T04:47:31;6.13;;;3.53;;
12433;SDS011;6281;49.038;8.372;2022-08-03T04:49:59;8.63;;;3.67;;
12433;SDS011;6281;49.038;8.372;2022-08-03T04:52:26;6.27;;;3.83;;
12433;SDS011;6281;49.038;8.372;2022-08-03T04:54:54;10.87;;;3.90;;
12433;SDS011;6281;49.038;8.372;2022-08-03T04:57:20;9.57;;;4.37;;
12433;SDS011;6281;49.038;8.372;2022-08-03T04:59:47;4.30;;;3.33;;
12433;SDS011;6281;49.038;8.372;2022-08-03T05:02:18;7.00;;;3.70;;
12433;SDS011;6281;49.038;8.372;2022-08-03T05:04:46;7.37;;;4.17;;
12433;SDS011;6281;49.038;8.372;2022-08-03T05:07:14;6.30;;;3.70;;
12433;SDS011;6281;49.038;8.372;2022-08-03T05:09:41;5.43;;;3.07;;
12433;SDS011;6281;49.038;8.372;2022-08-03T05:12:09;19.50;;;4.67;;
12433;SDS011;6281;49.038;8.372;2022-08-03T05:14:36;8.07;;;3.50;;
12433;SDS011;6281;49.038;8.372;2022-08-03T05:17:03;5.97;;;3.63;;
12433;SDS011;6281;49.038;8.372;2022-08-03T05:19:30;8.23;;;3.67;;
12433;SDS011;6281;49.038;8.372;2022-08-03T05:21:59;5.80;;;3.10;;
12433;SDS011;6281;49.038;8.372;2022-08-03T05:24:26;5.20;;;3.50;;
12433;SDS011;6281;49.038;8.372;2022-08-03T05:26:53;4.40;;;3.20;;
12433;SDS011;6281;49.038;8.372;2022-08-03T05:29:19;3.77;;;3.30;;
12433;SDS011;6281;49.038;8.372;2022-08-03T05:31:47;7.53;;;3.33;;
12433;SDS011;6281;49.038;8.372;2022-08-03T05:34:13;7.27;;;3.53;;
12433;SDS011;6281;49.038;8.372;2022-08-03T05:36:40;5.57;;;3.40;;
12433;SDS011;6281;49.038;8.372;2022-08-03T05:39:08;5.00;;;3.00;;
12433;SDS011;6281;49.038;8.372;2022-08-03T05:41:35;6.27;;;3.10;;
12433;SDS011;6281;49.038;8.372;2022-08-03T05:44:02;8.23;;;3.40;;
12433;SDS011;6281;49.038;8.372;2022-08-03T05:46:30;4.30;;;3.20;;
12433;SDS011;6281;49.038;8.372;2022-08-03T05:48:57;6.00;;;2.67;;
12433;SDS011;6281;49.038;8.372;2022-08-03T05:51:24;6.13;;;2.40;;
12433;SDS011;6281;49.038;8.372;2022-08-03T05:53:52;3.83;;;3.00;;
12433;SDS011;6281;49.038;8.372;2022-08-03T05:56:22;4.53;;;3.17;;
12433;SDS011;6281;49.038;8.372;2022-08-03T05:58:50;5.67;;;2.97;;
12433;SDS011;6281;49.038;8.372;2022-08-03T06:01:17;3.70;;;3.27;;
12433;SDS011;6281;49.038;8.372;2022-08-03T06:03:47;4.63;;;3.00;;
12433;SDS011;6281;49.038;8.372;2022-08-03T06:06:14;6.93;;;3.00;;
12433;SDS011;6281;49.038;8.372;2022-08-03T06:08:42;3.83;;;2.80;;
12433;SDS011;6281;49.038;8.372;2022-08-03T06:11:09;5.77;;;3.03;;
12433;SDS011;6281;49.038;8.372;2022-08-03T06:13:38;5.47;;;2.97;;
12433;SDS011;6281;49.038;8.372;2022-08-03T06:16:05;4.97;;;3.10;;
12433;SDS011;6281;49.038;8.372;2022-08-03T06:18:33;4.30;;;3.00;;
12433;SDS011;6281;49.038;8.372;2022-08-03T06:21:00;4.87;;;3.17;;
12433;SDS011;6281;49.038;8.372;2022-08-03T06:23:27;6.43;;;2.83;;
12433;SDS011;6281;49.038;8.372;2022-08-03T06:25:54;3.20;;;2.80;;
12433;SDS011;6281;49.038;8.372;2022-08-03T06:28:21;3.93;;;2.77;;
12433;SDS011;6281;49.038;8.372;2022-08-03T06:30:49;4.37;;;2.63;;
12433;SDS011;6281;49.038;8.372;2022-08-03T06:33:16;4.17;;;2.87;;
12433;SDS011;6281;49.038;8.372;2022-08-03T06:35:43;2.90;;;2.70;;
12433;SDS011;6281;49.038;8.372;2022-08-03T06:38:10;6.00;;;3.00;;
12433;SDS011;6281;49.038;8.372;2022-08-03T06:40:37;3.17;;;2.40;;
12433;SDS011;6281;49.038;8.372;2022-08-03T06:43:05;3.63;;;2.50;;
12433;SDS011;6281;49.038;8.372;2022-08-03T06:45:33;4.37;;;2.80;;
12433;SDS011;6281;49.038;8.372;2022-08-03T06:48:02;4.10;;;2.77;;
12433;SDS011;6281;49.038;8.372;2022-08-03T06:50:30;6.57;;;3.20;;
12433;SDS011;6281;49.038;8.372;2022-08-03T06:52:57;3.53;;;2.83;;
12433;SDS011;6281;49.038;8.372;2022-08-03T06:55:25;4.77;;;2.73;;
12433;SDS011;6281;49.038;8.372;2022-08-03T06:57:52;2.83;;;2.43;;
12433;SDS011;6281;49.038;8.372;2022-08-03T07:00:19;4.77;;;3.00;;
12433;SDS011;6281;49.038;8.372;2022-08-03T07:02:47;5.30;;;2.67;;
12433;SDS011;6281;49.038;8.372;2022-08-03T07:05:15;5.20;;;2.53;;
12433;SDS011;6281;49.038;8.372;2022-08-03T07:07:43;5.63;;;2.40;;
12433;SDS011;6281;49.038;8.372;2022-08-03T07:10:10;4.47;;;2.40;;
12433;SDS011;6281;49.038;8.372;2022-08-03T07:12:37;4.40;;;2.27;;
12433;SDS011;6281;49.038;8.372;2022-08-03T07:15:06;4.70;;;2.50;;
12433;SDS011;6281;49.038;8.372;2022-08-03T07:17:34;4.20;;;2.83;;
12433;SDS011;6281;49.038;8.372;2022-08-03T07:20:02;5.10;;;2.90;;
12433;SDS011;6281;49.038;8.372;2022-08-03T07:22:32;2.30;;;2.10;;
12433;SDS011;6281;49.038;8.372;2022-08-03T07:24:59;6.07;;;2.70;;
12433;SDS011;6281;49.038;8.372;2022-08-03T07:27:26;4.33;;;2.63;;
12433;SDS011;6281;49.038;8.372;2022-08-03T07:29:54;3.50;;;2.83;;
12433;SDS011;6281;49.038;8.372;2022-08-03T07:32:21;3.23;;;2.70;;
12433;SDS011;6281;49.038;8.372;2022-08-03T07:34:49;2.60;;;2.40;;
12433;SDS011;6281;49.038;8.372;2022-08-03T07:37:16;7.67;;;2.60;;
12433;SDS011;6281;49.038;8.372;2022-08-03T07:39:44;7.10;;;2.47;;
12433;SDS011;6281;49.038;8.372;2022-08-03T07:42:11;3.70;;;2.77;;
12433;SDS011;6281;49.038;8.372;2022-08-03T07:44:38;4.73;;;2.40;;
12433;SDS011;6281;49.038;8.372;2022-08-03T07:47:06;9.03;;;2.93;;
12433;SDS011;6281;49.038;8.372;2022-08-03T07:49:32;6.73;;;2.93;;
12433;SDS011;6281;49.038;8.372;2022-08-03T07:52:03;5.70;;;2.63;;
12433;SDS011;6281;49.038;8.372;2022-08-03T07:54:49;4.93;;;2.70;;
12433;SDS011;6281;49.038;8.372;2022-08-03T07:57:16;5.70;;;2.67;;
12433;SDS011;6281;49.038;8.372;2022-08-03T07:59:44;3.17;;;2.57;;
12433;SDS011;6281;49.038;8.372;2022-08-03T08:02:11;7.03;;;2.50;;
12433;SDS011;6281;49.038;8.372;2022-08-03T08:04:38;3.10;;;2.40;;
12433;SDS011;6281;49.038;8.372;2022-08-03T08:07:05;3.30;;;2.70;;
12433;SDS011;6281;49.038;8.372;2022-08-03T08:09:32;4.23;;;2.70;;
12433;SDS011;6281;49.038;8.372;2022-08-03T08:12:01;3.90;;;2.73;;
12433;SDS011;6281;49.038;8.372;2022-08-03T08:14:28;2.77;;;2.50;;
12433;SDS011;6281;49.038;8.372;2022-08-03T08:16:55;5.27;;;2.90;;
12433;SDS011;6281;49.038;8.372;2022-08-03T08:19:22;4.25;;;2.75;;
12433;SDS011;6281;49.038;8.372;2022-08-03T08:21:49;6.70;;;2.65;;
12433;SDS011;6281;49.038;8.372;2022-08-03T08:24:15;6.05;;;2.45;;
12433;SDS011;6281;49.038;8.372;2022-08-03T08:26:42;5.00;;;2.80;;
12433;SDS011;6281;49.038;8.372;2022-08-03T08:29:11;5.55;;;2.58;;
12433;SDS011;6281;49.038;8.372;2022-08-03T08:31:38;5.25;;;2.60;;
12433;SDS011;6281;49.038;8.372;2022-08-03T08:34:05;3.95;;;2.53;;
12433;SDS011;6281;49.038;8.372;2022-08-03T08:36:32;4.05;;;2.53;;
12433;SDS011;6281;49.038;8.372;2022-08-03T08:38:59;5.25;;;2.65;;
12433;SDS011;6281;49.038;8.372;2022-08-03T08:41:26;4.10;;;2.65;;
12433;SDS011;6281;49.038;8.372;2022-08-03T08:43:53;5.07;;;2.80;;
12433;SDS011;6281;49.038;8.372;2022-08-03T08:46:22;2.88;;;2.60;;
12433;SDS011;6281;49.038;8.372;2022-08-03T08:48:49;5.53;;;3.15;;
12433;SDS011;6281;49.038;8.372;2022-08-03T08:51:18;4.60;;;2.92;;
12433;SDS011;6281;49.038;8.372;2022-08-03T08:53:47;3.42;;;2.80;;
12433;SDS011;6281;49.038;8.372;2022-08-03T08:56:17;2.97;;;2.38;;
12433;SDS011;6281;49.038;8.372;2022-08-03T08:58:50;4.50;;;2.72;;
12433;SDS011;6281;49.038;8.372;2022-08-03T09:01:18;5.82;;;2.90;;
12433;SDS011;6281;49.038;8.372;2022-08-03T09:03:47;5.13;;;2.75;;
12433;SDS011;6281;49.038;8.372;2022-08-03T09:06:14;4.80;;;2.95;;
12433;SDS011;6281;49.038;8.372;2022-08-03T09:08:42;5.18;;;3.05;;
12433;SDS011;6281;49.038;8.372;2022-08-03T09:11:09;7.55;;;2.85;;
12433;SDS011;6281;49.038;8.372;2022-08-03T09:13:36;3.33;;;2.70;;
12433;SDS011;6281;49.038;8.372;2022-08-03T09:16:10;3.58;;;2.90;;
12433;SDS011;6281;49.038;8.372;2022-08-03T09:18:38;3.70;;;2.80;;
12433;SDS011;6281;49.038;8.372;2022-08-03T09:21:13;5.35;;;3.00;;
12433;SDS011;6281;49.038;8.372;2022-08-03T09:23:45;3.40;;;2.83;;
12433;SDS011;6281;49.038;8.372;2022-08-03T09:26:19;3.78;;;2.53;;
12433;SDS011;6281;49.038;8.372;2022-08-03T09:28:53;4.80;;;2.63;;
12433;SDS011;6281;49.038;8.372;2022-08-03T09:31:28;4.75;;;2.67;;
12433;SDS011;6281;49.038;8.372;2022-08-03T09:33:56;5.00;;;2.95;;
12433;SDS011;6281;49.038;8.372;2022-08-03T09:36:39;5.05;;;2.55;;
12433;SDS011;6281;49.038;8.372;2022-08-03T09:39:07;6.70;;;2.55;;
12433;SDS011;6281;49.038;8.372;2022-08-03T09:41:36;4.30;;;2.13;;
12433;SDS011;6281;49.038;8.372;2022-08-03T09:44:05;5.00;;;3.00;;
12433;SDS011;6281;49.038;8.372;2022-08-03T09:46:46;2.53;;;2.30;;
12433;SDS011;6281;49.038;8.372;2022-08-03T09:49:13;6.13;;;3.10;;
12433;SDS011;6281;49.038;8.372;2022-08-03T09:51:42;8.95;;;4.93;;
12433;SDS011;6281;49.038;8.372;2022-08-03T09:54:09;12.60;;;5.32;;
12433;SDS011;6281;49.038;8.372;2022-08-03T09:56:36;17.08;;;11.00;;
12433;SDS011;6281;49.038;8.372;2022-08-03T09:59:08;19.13;;;9.07;;
12433;SDS011;6281;49.038;8.372;2022-08-03T10:01:36;7.22;;;5.82;;
12433;SDS011;6281;49.038;8.372;2022-08-03T10:04:05;13.98;;;5.75;;
12433;SDS011;6281;49.038;8.372;2022-08-03T10:06:39;5.53;;;3.45;;
12433;SDS011;6281;49.038;8.372;2022-08-03T10:09:08;4.65;;;2.90;;
12433;SDS011;6281;49.038;8.372;2022-08-03T10:11:36;6.25;;;2.90;;
12433;SDS011;6281;49.038;8.372;2022-08-03T10:14:04;4.10;;;2.90;;
12433;SDS011;6281;49.038;8.372;2022-08-03T10:16:33;3.60;;;2.63;;
12433;SDS011;6281;49.038;8.372;2022-08-03T10:19:01;5.72;;;2.60;;
12433;SDS011;6281;49.038;8.372;2022-08-03T10:21:31;3.70;;;2.55;;
12433;SDS011;6281;49.038;8.372;2022-08-03T10:24:00;2.40;;;2.20;;
12433;SDS011;6281;49.038;8.372;2022-08-03T10:26:31;2.97;;;2.05;;
12433;SDS011;6281;49.038;8.372;2022-08-03T10:29:01;2.88;;;2.45;;
12433;SDS011;6281;49.038;8.372;2022-08-03T10:31:33;2.55;;;1.98;;
12433;SDS011;6281;49.038;8.372;2022-08-03T10:34:05;3.28;;;2.20;;
12433;SDS011;6281;49.038;8.372;2022-08-03T10:36:37;2.25;;;2.05;;
12433;SDS011;6281;49.038;8.372;2022-08-03T10:39:06;4.90;;;2.08;;
12433;SDS011;6281;49.038;8.372;2022-08-03T10:41:38;2.30;;;2.10;;
12433;SDS011;6281;49.038;8.372;2022-08-03T10:44:07;3.40;;;2.20;;
12433;SDS011;6281;49.038;8.372;2022-08-03T10:46:37;2.25;;;2.00;;
12433;SDS011;6281;49.038;8.372;2022-08-03T10:49:05;3.03;;;2.38;;
12433;SDS011;6281;49.038;8.372;2022-08-03T10:51:32;2.92;;;2.25;;
12433;SDS011;6281;49.038;8.372;2022-08-03T10:54:00;2.63;;;1.98;;
12433;SDS011;6281;49.038;8.372;2022-08-03T10:56:40;3.35;;;2.05;;
12433;SDS011;6281;49.038;8.372;2022-08-03T11:02:22;2.72;;;2.33;;
12433;SDS011;6281;49.038;8.372;2022-08-03T11:05:30;3.17;;;2.03;;
12433;SDS011;6281;49.038;8.372;2022-08-03T11:10:52;3.10;;;2.05;;
12433;SDS011;6281;49.038;8.372;2022-08-03T11:13:20;4.95;;;2.33;;
12433;SDS011;6281;49.038;8.372;2022-08-03T11:15:49;3.28;;;2.20;;
12433;SDS011;6281;49.038;8.372;2022-08-03T11:18:18;3.75;;;2.22;;
12433;SDS011;6281;49.038;8.372;2022-08-03T11:20:47;8.65;;;2.22;;
12433;SDS011;6281;49.038;8.372;2022-08-03T11:23:16;2.67;;;1.98;;
12433;SDS011;6281;49.038;8.372;2022-08-03T11:28:35;3.42;;;2.10;;
12433;SDS011;6281;49.038;8.372;2022-08-03T11:34:21;3.25;;;2.10;;
12433;SDS011;6281;49.038;8.372;2022-08-03T11:39:46;3.28;;;2.20;;
12433;SDS011;6281;49.038;8.372;2022-08-03T11:45:09;2.38;;;2.20;;
12433;SDS011;6281;49.038;8.372;2022-08-03T11:47:37;2.72;;;2.35;;
12433;SDS011;6281;49.038;8.372;2022-08-03T11:50:05;7.65;;;2.40;;
12433;SDS011;6281;49.038;8.372;2022-08-03T11:52:36;4.03;;;2.15;;
12433;SDS011;6281;49.038;8.372;2022-08-03T11:55:13;3.60;;;2.47;;
12433;SDS011;6281;49.038;8.372;2022-08-03T11:57:43;2.58;;;2.20;;
12433;SDS011;6281;49.038;8.372;2022-08-03T12:03:03;2.53;;;2.33;;
12433;SDS011;6281;49.038;8.372;2022-08-03T12:05:35;2.80;;;2.20;;
12433;SDS011;6281;49.038;8.372;2022-08-03T12:08:05;2.50;;;2.30;;
12433;SDS011;6281;49.038;8.372;2022-08-03T12:10:33;2.17;;;1.98;;
12433;SDS011;6281;49.038;8.372;2022-08-03T12:13:02;2.33;;;1.85;;
12433;SDS011;6281;49.038;8.372;2022-08-03T12:15:34;3.28;;;2.08;;
12433;SDS011;6281;49.038;8.372;2022-08-03T12:18:02;2.30;;;2.10;;
12433;SDS011;6281;49.038;8.372;2022-08-03T12:20:37;5.28;;;2.55;;
12433;SDS011;6281;49.038;8.372;2022-08-03T12:23:06;5.40;;;2.33;;
12433;SDS011;6281;49.038;8.372;2022-08-03T12:25:34;3.65;;;2.40;;
12433;SDS011;6281;49.038;8.372;2022-08-03T12:28:12;5.55;;;2.50;;
12433;SDS011;6281;49.038;8.372;2022-08-03T12:30:43;4.85;;;2.58;;
12433;SDS011;6281;49.038;8.372;2022-08-03T12:33:21;2.25;;;1.95;;
12433;SDS011;6281;49.038;8.372;2022-08-03T12:35:51;2.88;;;2.22;;
12433;SDS011;6281;49.038;8.372;2022-08-03T12:38:31;3.25;;;2.33;;
12433;SDS011;6281;49.038;8.372;2022-08-03T12:41:00;3.05;;;2.30;;
12433;SDS011;6281;49.038;8.372;2022-08-03T12:43:30;3.65;;;2.22;;
12433;SDS011;6281;49.038;8.372;2022-08-03T12:46:06;4.47;;;2.65;;
12433;SDS011;6281;49.038;8.372;2022-08-03T12:51:54;2.50;;;2.30;;
12433;SDS011;6281;49.038;8.372;2022-08-03T12:54:23;3.17;;;2.47;;
12433;SDS011;6281;49.038;8.372;2022-08-03T12:56:58;2.30;;;2.10;;
12433;SDS011;6281;49.038;8.372;2022-08-03T12:59:26;2.40;;;2.20;;
12433;SDS011;6281;49.038;8.372;2022-08-03T13:01:54;2.55;;;2.33;;
12433;SDS011;6281;49.038;8.372;2022-08-03T13:04:24;3.25;;;2.17;;
12433;SDS011;6281;49.038;8.372;2022-08-03T13:06:56;3.72;;;2.10;;
12433;SDS011;6281;49.038;8.372;2022-08-03T13:09:25;3.38;;;2.35;;
12433;SDS011;6281;49.038;8.372;2022-08-03T13:12:05;3.03;;;2.45;;
12433;SDS011;6281;49.038;8.372;2022-08-03T13:14:33;2.55;;;2.35;;
12433;SDS011;6281;49.038;8.372;2022-08-03T13:17:00;2.40;;;2.20;;
12433;SDS011;6281;49.038;8.372;2022-08-03T13:19:27;2.50;;;2.30;;
12433;SDS011;6281;49.038;8.372;2022-08-03T13:21:54;2.63;;;2.42;;
12433;SDS011;6281;49.038;8.372;2022-08-03T13:24:21;2.65;;;2.20;;
12433;SDS011;6281;49.038;8.372;2022-08-03T13:26:50;3.53;;;2.30;;
12433;SDS011;6281;49.038;8.372;2022-08-03T13:29:17;4.72;;;2.70;;
12433;SDS011;6281;49.038;8.372;2022-08-03T13:31:43;2.35;;;2.05;;
12433;SDS011;6281;49.038;8.372;2022-08-03T13:34:10;2.35;;;2.15;;
12433;SDS011;6281;49.038;8.372;2022-08-03T13:36:37;3.15;;;2.30;;
12433;SDS011;6281;49.038;8.372;2022-08-03T13:39:04;3.08;;;2.25;;
12433;SDS011;6281;49.038;8.372;2022-08-03T13:41:31;2.70;;;2.13;;
12433;SDS011;6281;49.038;8.372;2022-08-03T13:44:00;2.25;;;1.90;;
12433;SDS011;6281;49.038;8.372;2022-08-03T13:46:27;4.07;;;2.63;;
12433;SDS011;6281;49.038;8.372;2022-08-03T13:48:53;2.40;;;2.20;;
12433;SDS011;6281;49.038;8.372;2022-08-03T13:51:20;2.30;;;2.15;;
12433;SDS011;6281;49.038;8.372;2022-08-03T13:53:47;3.83;;;2.45;;
12433;SDS011;6281;49.038;8.372;2022-08-03T13:56:14;2.83;;;2.03;;
12433;SDS011;6281;49.038;8.372;2022-08-03T13:58:42;2.92;;;2.13;;
12433;SDS011;6281;49.038;8.372;2022-08-03T14:01:10;3.00;;;2.10;;
12433;SDS011;6281;49.038;8.372;2022-08-03T14:03:37;2.28;;;2.05;;
12433;SDS011;6281;49.038;8.372;2022-08-03T14:06:04;2.38;;;2.10;;
12433;SDS011;6281;49.038;8.372;2022-08-03T14:08:31;2.75;;;2.30;;
12433;SDS011;6281;49.038;8.372;2022-08-03T14:10:58;2.20;;;2.10;;
12433;SDS011;6281;49.038;8.372;2022-08-03T14:13:25;3.58;;;2.17;;
12433;SDS011;6281;49.038;8.372;2022-08-03T14:15:52;3.28;;;2.33;;
12433;SDS011;6281;49.038;8.372;2022-08-03T14:18:21;2.42;;;1.98;;
12433;SDS011;6281;49.038;8.372;2022-08-03T14:20:48;2.88;;;2.42;;
12433;SDS011;6281;49.038;8.372;2022-08-03T14:23:15;2.40;;;2.20;;
12433;SDS011;6281;49.038;8.372;2022-08-03T14:25:42;2.75;;;2.22;;
12433;SDS011;6281;49.038;8.372;2022-08-03T14:28:09;2.75;;;2.20;;
12433;SDS011;6281;49.038;8.372;2022-08-03T14:30:37;2.75;;;2.08;;
12433;SDS011;6281;49.038;8.372;2022-08-03T14:33:03;2.40;;;2.20;;
12433;SDS011;6281;49.038;8.372;2022-08-03T14:35:32;2.50;;;2.30;;
12433;SDS011;6281;49.038;8.372;2022-08-03T14:37:58;2.97;;;2.10;;
12433;SDS011;6281;49.038;8.372;2022-08-03T14:40:25;4.55;;;2.42;;
12433;SDS011;6281;49.038;8.372;2022-08-03T14:42:52;2.25;;;2.05;;
12433;SDS011;6281;49.038;8.372;2022-08-03T14:45:19;5.13;;;2.25;;
12433;SDS011;6281;49.038;8.372;2022-08-03T14:47:47;3.03;;;2.20;;
12433;SDS011;6281;49.038;8.372;2022-08-03T14:50:15;2.85;;;2.38;;
12433;SDS011;6281;49.038;8.372;2022-08-03T14:52:43;5.72;;;2.55;;
12433;SDS011;6281;49.038;8.372;2022-08-03T14:55:10;3.20;;;2.05;;
12433;SDS011;6281;49.038;8.372;2022-08-03T14:57:37;2.42;;;2.22;;
12433;SDS011;6281;49.038;8.372;2022-08-03T15:00:04;3.28;;;2.40;;
12433;SDS011;6281;49.038;8.372;2022-08-03T15:02:32;2.50;;;2.30;;
12433;SDS011;6281;49.038;8.372;2022-08-03T15:04:59;2.47;;;2.28;;
12433;SDS011;6281;49.038;8.372;2022-08-03T15:07:26;2.65;;;1.90;;
12433;SDS011;6281;49.038;8.372;2022-08-03T15:09:55;3.08;;;2.13;;
12433;SDS011;6281;49.038;8.372;2022-08-03T15:12:22;4.15;;;2.30;;
12433;SDS011;6281;49.038;8.372;2022-08-03T15:14:49;3.35;;;2.33;;
12433;SDS011;6281;49.038;8.372;2022-08-03T15:17:15;2.33;;;2.13;;
12433;SDS011;6281;49.038;8.372;2022-08-03T15:19:42;2.53;;;2.33;;
12433;SDS011;6281;49.038;8.372;2022-08-03T15:22:09;4.68;;;2.70;;
12433;SDS011;6281;49.038;8.372;2022-08-03T15:24:39;3.45;;;2.42;;
12433;SDS011;6281;49.038;8.372;2022-08-03T15:27:07;4.22;;;2.40;;
12433;SDS011;6281;49.038;8.372;2022-08-03T15:29:34;2.80;;;2.35;;
12433;SDS011;6281;49.038;8.372;2022-08-03T15:32:01;2.50;;;2.30;;
12433;SDS011;6281;49.038;8.372;2022-08-03T15:34:28;4.25;;;2.63;;